UUEE/SVO METAR and TAF weather

Enter ICAO airport designator
Station Type Date Time Source
UUEE METAR 2019/02/18 04:30 UTC NOAA

UUEE 180430Z 33010G15MPS 9999 SCT040 M03/M09 Q1011 R24L/410351 R24C/410345 NOSIG


Station Type Date Time Source
UUEE Decoded METAR 2019/02/18 04:30 UTC NOAA

Moscow / Sheremet'Ye , Russia (UUEE) 55-59N 037-30E
Feb 17, 2019 - 11:30 PM EST / 2019.02.18 0430 UTC
Wind: from the NNW (330 degrees) at 22 MPH (19 KT) gusting to 34 MPH (29 KT):0
Visibility: greater than 7 mile(s):0
Sky conditions: partly cloudy
Temperature: 26 F (-3 C)
Windchill: 12 F (-11 C):1
Dew Point: 15 F (-9 C)
Relative Humidity: 63%
Pressure (altimeter): 29.85 in. Hg (1011 hPa)
ob: UUEE 180430Z 33010G15MPS 9999 SCT040 M03/M09 Q1011 R24L/410351 R24C/410345 NOSIG
cycle: 4

Station Type Date Time Source
UUEE TAF 2019/02/18 03:21 UTC NOAA

TAF UUEE 180200Z 1803/1903 32008G16MPS 9999 BKN011 TXM03/1803Z TNM10/1903Z
BECMG 1815/1819 22002MPS


Example: see airport list